sensor_id;sensor_type;location;lat;lon;timestamp;pressure;altitude;pressure_sealevel;temperature;humidity
17311;BME280;8773;43.300;0.394;2023-02-22T00:02:04;99896.19;;;11.22;64.66
17311;BME280;8773;43.300;0.394;2023-02-22T00:04:51;99897.34;;;11.20;64.31
17311;BME280;8773;43.300;0.394;2023-02-22T00:07:19;99903.16;;;11.33;63.62
17311;BME280;8773;43.300;0.394;2023-02-22T00:09:50;99908.41;;;11.43;63.23
17311;BME280;8773;43.300;0.394;2023-02-22T00:12:19;99900.06;;;11.46;62.68
17311;BME280;8773;43.300;0.394;2023-02-22T00:14:47;99901.44;;;11.50;63.36
17311;BME280;8773;43.300;0.394;2023-02-22T00:17:16;99894.41;;;11.49;62.90
17311;BME280;8773;43.300;0.394;2023-02-22T00:19:47;99900.75;;;11.48;63.12
17311;BME280;8773;43.300;0.394;2023-02-22T00:22:15;99907.09;;;11.47;62.67
17311;BME280;8773;43.300;0.394;2023-02-22T00:24:44;99904.75;;;11.44;63.66
17311;BME280;8773;43.300;0.394;2023-02-22T00:27:15;99902.91;;;11.44;63.78
17311;BME280;8773;43.300;0.394;2023-02-22T00:29:43;99898.94;;;11.48;63.46
17311;BME280;8773;43.300;0.394;2023-02-22T00:32:12;99907.81;;;11.57;63.87
17311;BME280;8773;43.300;0.394;2023-02-22T00:34:41;99898.47;;;11.53;62.60
17311;BME280;8773;43.300;0.394;2023-02-22T00:37:09;99901.47;;;11.58;62.84
17311;BME280;8773;43.300;0.394;2023-02-22T00:39:38;99900.00;;;11.63;62.15
17311;BME280;8773;43.300;0.394;2023-02-22T00:42:06;99892.50;;;11.67;62.45
17311;BME280;8773;43.300;0.394;2023-02-22T00:44:36;99896.00;;;11.67;62.85
17311;BME280;8773;43.300;0.394;2023-02-22T00:47:04;99894.69;;;11.71;62.77
17311;BME280;8773;43.300;0.394;2023-02-22T00:49:32;99896.06;;;11.75;62.42
17311;BME280;8773;43.300;0.394;2023-02-22T00:52:01;99894.00;;;11.69;62.68
17311;BME280;8773;43.300;0.394;2023-02-22T00:54:30;99899.41;;;11.78;62.54
17311;BME280;8773;43.300;0.394;2023-02-22T00:56:59;99907.91;;;11.73;62.73
17311;BME280;8773;43.300;0.394;2023-02-22T00:59:27;99903.41;;;11.73;62.33
17311;BME280;8773;43.300;0.394;2023-02-22T01:01:58;99905.75;;;11.77;61.86
17311;BME280;8773;43.300;0.394;2023-02-22T01:04:27;99908.78;;;11.82;61.91
17311;BME280;8773;43.300;0.394;2023-02-22T01:06:55;99916.63;;;11.75;61.76
17311;BME280;8773;43.300;0.394;2023-02-22T01:09:26;99917.94;;;11.71;62.48
17311;BME280;8773;43.300;0.394;2023-02-22T01:11:55;99921.44;;;11.71;61.68
17311;BME280;8773;43.300;0.394;2023-02-22T01:14:24;99911.75;;;11.70;61.80
17311;BME280;8773;43.300;0.394;2023-02-22T01:16:54;99906.38;;;11.70;62.55
17311;BME280;8773;43.300;0.394;2023-02-22T01:19:24;99916.09;;;11.71;62.07
17311;BME280;8773;43.300;0.394;2023-02-22T01:21:52;99916.47;;;11.77;62.19
17311;BME280;8773;43.300;0.394;2023-02-22T01:24:21;99918.13;;;11.78;62.68
17311;BME280;8773;43.300;0.394;2023-02-22T01:26:50;99913.78;;;11.77;62.92
17311;BME280;8773;43.300;0.394;2023-02-22T01:29:19;99908.44;;;11.77;62.09
17311;BME280;8773;43.300;0.394;2023-02-22T01:31:51;99908.13;;;11.80;62.59
17311;BME280;8773;43.300;0.394;2023-02-22T01:34:21;99913.72;;;11.68;62.47
17311;BME280;8773;43.300;0.394;2023-02-22T01:36:51;99919.13;;;11.77;62.26
17311;BME280;8773;43.300;0.394;2023-02-22T01:39:19;99915.16;;;11.81;61.92
17311;BME280;8773;43.300;0.394;2023-02-22T01:41:47;99923.84;;;11.83;62.75
17311;BME280;8773;43.300;0.394;2023-02-22T01:44:24;99920.03;;;11.85;61.73
17311;BME280;8773;43.300;0.394;2023-02-22T01:46:53;99923.50;;;11.78;62.42
17311;BME280;8773;43.300;0.394;2023-02-22T01:49:22;99923.97;;;11.73;62.21
17311;BME280;8773;43.300;0.394;2023-02-22T01:51:54;99911.78;;;11.79;62.55
17311;BME280;8773;43.300;0.394;2023-02-22T01:54:24;99905.81;;;11.85;61.87
17311;BME280;8773;43.300;0.394;2023-02-22T01:57:00;99909.19;;;11.95;61.08
17311;BME280;8773;43.300;0.394;2023-02-22T01:59:33;99914.38;;;11.96;61.09
17311;BME280;8773;43.300;0.394;2023-02-22T02:02:03;99904.16;;;11.92;61.18
17311;BME280;8773;43.300;0.394;2023-02-22T02:04:32;99913.03;;;12.00;61.45
17311;BME280;8773;43.300;0.394;2023-02-22T02:07:04;99916.56;;;12.01;61.60
17311;BME280;8773;43.300;0.394;2023-02-22T02:09:37;99915.72;;;12.00;61.28
17311;BME280;8773;43.300;0.394;2023-02-22T02:12:08;99915.09;;;12.06;60.72
17311;BME280;8773;43.300;0.394;2023-02-22T02:14:39;99909.06;;;12.04;61.52
17311;BME280;8773;43.300;0.394;2023-02-22T02:17:09;99902.66;;;11.89;61.61
17311;BME280;8773;43.300;0.394;2023-02-22T02:19:46;99893.56;;;11.48;62.89
17311;BME280;8773;43.300;0.394;2023-02-22T02:22:29;99906.06;;;11.73;62.51
17311;BME280;8773;43.300;0.394;2023-02-22T02:28:26;99895.34;;;12.07;62.95
17311;BME280;8773;43.300;0.394;2023-02-22T02:34:29;99894.25;;;12.26;63.75
17311;BME280;8773;43.300;0.394;2023-02-22T02:37:07;99897.63;;;12.36;63.55
17311;BME280;8773;43.300;0.394;2023-02-22T02:39:40;99880.22;;;12.40;63.23
17311;BME280;8773;43.300;0.394;2023-02-22T02:42:15;99890.28;;;12.47;63.99
17311;BME280;8773;43.300;0.394;2023-02-22T02:44:53;99886.59;;;12.48;63.77
17311;BME280;8773;43.300;0.394;2023-02-22T02:47:25;99889.47;;;12.54;63.29
17311;BME280;8773;43.300;0.394;2023-02-22T02:50:00;99893.00;;;12.55;63.79
17311;BME280;8773;43.300;0.394;2023-02-22T02:52:31;99894.69;;;12.56;63.53
17311;BME280;8773;43.300;0.394;2023-02-22T02:55:02;99887.47;;;12.56;63.47
17311;BME280;8773;43.300;0.394;2023-02-22T02:57:31;99887.81;;;12.61;63.36
17311;BME280;8773;43.300;0.394;2023-02-22T02:59:59;99891.34;;;12.62;63.47
17311;BME280;8773;43.300;0.394;2023-02-22T03:02:41;99885.47;;;12.58;63.66
17311;BME280;8773;43.300;0.394;2023-02-22T03:05:30;99884.47;;;12.59;63.37
17311;BME280;8773;43.300;0.394;2023-02-22T03:08:06;99880.28;;;12.57;63.19
17311;BME280;8773;43.300;0.394;2023-02-22T03:10:45;99886.97;;;12.53;63.33
17311;BME280;8773;43.300;0.394;2023-02-22T03:13:27;99891.00;;;12.57;63.05
17311;BME280;8773;43.300;0.394;2023-02-22T03:16:05;99887.00;;;12.61;62.98
17311;BME280;8773;43.300;0.394;2023-02-22T03:18:48;99888.47;;;12.55;63.06
17311;BME280;8773;43.300;0.394;2023-02-22T03:21:24;99878.94;;;12.61;62.20
17311;BME280;8773;43.300;0.394;2023-02-22T03:24:01;99886.66;;;12.64;62.65
17311;BME280;8773;43.300;0.394;2023-02-22T03:26:35;99884.81;;;12.64;62.74
17311;BME280;8773;43.300;0.394;2023-02-22T03:29:07;99882.13;;;12.64;62.50
17311;BME280;8773;43.300;0.394;2023-02-22T03:31:41;99878.13;;;12.60;62.80
17311;BME280;8773;43.300;0.394;2023-02-22T03:34:14;99884.97;;;12.63;63.21
17311;BME280;8773;43.300;0.394;2023-02-22T03:36:47;99896.53;;;12.63;62.84
17311;BME280;8773;43.300;0.394;2023-02-22T03:39:18;99881.13;;;12.57;63.06
17311;BME280;8773;43.300;0.394;2023-02-22T03:41:48;99883.28;;;12.54;63.63
17311;BME280;8773;43.300;0.394;2023-02-22T03:44:21;99883.41;;;12.44;63.87
17311;BME280;8773;43.300;0.394;2023-02-22T03:46:53;99884.38;;;12.27;65.40
17311;BME280;8773;43.300;0.394;2023-02-22T03:49:29;99876.88;;;12.38;64.33
17311;BME280;8773;43.300;0.394;2023-02-22T03:52:03;99877.88;;;12.46;63.70
17311;BME280;8773;43.300;0.394;2023-02-22T03:54:32;99883.06;;;12.47;64.55
17311;BME280;8773;43.300;0.394;2023-02-22T03:57:07;99883.41;;;12.44;63.92
17311;BME280;8773;43.300;0.394;2023-02-22T03:59:37;99878.72;;;12.46;63.74
17311;BME280;8773;43.300;0.394;2023-02-22T04:02:05;99884.59;;;12.50;63.85
17311;BME280;8773;43.300;0.394;2023-02-22T04:04:33;99888.66;;;12.54;63.36
17311;BME280;8773;43.300;0.394;2023-02-22T04:07:03;99885.81;;;12.55;63.22
17311;BME280;8773;43.300;0.394;2023-02-22T04:09:31;99884.38;;;12.27;65.02
17311;BME280;8773;43.300;0.394;2023-02-22T04:11:59;99878.22;;;12.34;64.00
17311;BME280;8773;43.300;0.394;2023-02-22T04:14:27;99875.06;;;12.39;64.50
17311;BME280;8773;43.300;0.394;2023-02-22T04:16:56;99876.22;;;12.45;64.25
17311;BME280;8773;43.300;0.394;2023-02-22T04:19:24;99882.91;;;12.49;64.72
17311;BME280;8773;43.300;0.394;2023-02-22T04:21:52;99881.06;;;12.49;64.42
17311;BME280;8773;43.300;0.394;2023-02-22T04:24:21;99875.88;;;12.48;64.21
17311;BME280;8773;43.300;0.394;2023-02-22T04:26:49;99887.25;;;12.50;64.96
17311;BME280;8773;43.300;0.394;2023-02-22T04:29:17;99885.44;;;12.50;64.70
17311;BME280;8773;43.300;0.394;2023-02-22T04:31:46;99884.28;;;12.53;64.21
17311;BME280;8773;43.300;0.394;2023-02-22T04:34:14;99884.75;;;12.48;64.57
17311;BME280;8773;43.300;0.394;2023-02-22T04:36:42;99883.41;;;12.44;65.16
17311;BME280;8773;43.300;0.394;2023-02-22T04:39:11;99886.91;;;12.45;64.81
17311;BME280;8773;43.300;0.394;2023-02-22T04:41:40;99886.44;;;12.49;64.76
17311;BME280;8773;43.300;0.394;2023-02-22T04:44:08;99880.22;;;12.49;64.98
17311;BME280;8773;43.300;0.394;2023-02-22T04:46:36;99886.59;;;12.48;64.78
17311;BME280;8773;43.300;0.394;2023-02-22T04:49:05;99887.44;;;12.48;64.45
17311;BME280;8773;43.300;0.394;2023-02-22T04:51:33;99887.59;;;12.47;65.04
17311;BME280;8773;43.300;0.394;2023-02-22T04:54:01;99892.63;;;12.50;64.55
17311;BME280;8773;43.300;0.394;2023-02-22T04:56:29;99892.63;;;12.50;64.76
17311;BME280;8773;43.300;0.394;2023-02-22T04:58:59;99896.97;;;12.51;64.30
17311;BME280;8773;43.300;0.394;2023-02-22T05:01:30;99891.75;;;12.41;64.46
17311;BME280;8773;43.300;0.394;2023-02-22T05:04:00;99901.31;;;12.35;65.01
17311;BME280;8773;43.300;0.394;2023-02-22T05:06:28;99895.78;;;12.37;64.28
17311;BME280;8773;43.300;0.394;2023-02-22T05:08:57;99903.00;;;12.36;64.67
17311;BME280;8773;43.300;0.394;2023-02-22T05:11:25;99909.03;;;12.38;64.54
17311;BME280;8773;43.300;0.394;2023-02-22T05:13:54;99901.81;;;12.31;64.78
17311;BME280;8773;43.300;0.394;2023-02-22T05:16:23;99900.78;;;12.40;64.56
17311;BME280;8773;43.300;0.394;2023-02-22T05:18:52;99897.13;;;12.41;63.96
17311;BME280;8773;43.300;0.394;2023-02-22T05:21:20;99888.91;;;12.42;64.08
17311;BME280;8773;43.300;0.394;2023-02-22T05:23:49;99895.94;;;12.43;63.94
17311;BME280;8773;43.300;0.394;2023-02-22T05:26:17;99897.97;;;12.50;64.04
17311;BME280;8773;43.300;0.394;2023-02-22T05:28:45;99893.63;;;12.49;64.52
17311;BME280;8773;43.300;0.394;2023-02-22T05:31:14;99885.13;;;12.53;63.85
17311;BME280;8773;43.300;0.394;2023-02-22T05:33:44;99901.50;;;12.50;64.80
17311;BME280;8773;43.300;0.394;2023-02-22T05:36:14;99896.00;;;12.52;64.26
17311;BME280;8773;43.300;0.394;2023-02-22T05:38:42;99896.63;;;12.37;65.03
17311;BME280;8773;43.300;0.394;2023-02-22T05:41:11;99894.63;;;12.39;64.96
17311;BME280;8773;43.300;0.394;2023-02-22T05:43:39;99897.59;;;12.28;65.20
17311;BME280;8773;43.300;0.394;2023-02-22T05:46:07;99902.28;;;12.26;65.94
17311;BME280;8773;43.300;0.394;2023-02-22T05:48:36;99894.25;;;12.26;65.48
17311;BME280;8773;43.300;0.394;2023-02-22T05:51:06;99882.31;;;12.13;65.71
17311;BME280;8773;43.300;0.394;2023-02-22T05:53:35;99896.22;;;12.16;65.68
17311;BME280;8773;43.300;0.394;2023-02-22T05:56:04;99894.53;;;12.15;65.96
17311;BME280;8773;43.300;0.394;2023-02-22T05:58:32;99894.50;;;12.07;65.50
17311;BME280;8773;43.300;0.394;2023-02-22T06:01:01;99892.66;;;12.07;65.62
17311;BME280;8773;43.300;0.394;2023-02-22T06:03:29;99898.50;;;12.03;65.23
17311;BME280;8773;43.300;0.394;2023-02-22T06:05:57;99892.50;;;12.09;65.76
17311;BME280;8773;43.300;0.394;2023-02-22T06:08:26;99895.00;;;12.02;65.75
17311;BME280;8773;43.300;0.394;2023-02-22T06:10:55;99891.50;;;12.10;65.64
17311;BME280;8773;43.300;0.394;2023-02-22T06:13:23;99898.06;;;12.16;65.54
17311;BME280;8773;43.300;0.394;2023-02-22T06:15:51;99892.53;;;12.17;64.97
17311;BME280;8773;43.300;0.394;2023-02-22T06:18:19;99896.75;;;12.20;65.04
17311;BME280;8773;43.300;0.394;2023-02-22T06:20:47;99900.09;;;12.22;64.97
17311;BME280;8773;43.300;0.394;2023-02-22T06:23:16;99896.91;;;12.18;65.58
17311;BME280;8773;43.300;0.394;2023-02-22T06:25:45;99897.25;;;12.23;65.26
17311;BME280;8773;43.300;0.394;2023-02-22T06:28:14;99901.63;;;12.32;65.70
17311;BME280;8773;43.300;0.394;2023-02-22T06:30:42;99903.63;;;12.30;66.08
17311;BME280;8773;43.300;0.394;2023-02-22T06:33:10;99887.75;;;12.29;65.41
17311;BME280;8773;43.300;0.394;2023-02-22T06:35:38;99890.75;;;12.34;64.97
17311;BME280;8773;43.300;0.394;2023-02-22T06:38:07;99902.00;;;12.37;65.23
17311;BME280;8773;43.300;0.394;2023-02-22T06:40:35;99897.97;;;12.33;65.33
17311;BME280;8773;43.300;0.394;2023-02-22T06:43:04;99902.97;;;12.28;66.00
17311;BME280;8773;43.300;0.394;2023-02-22T06:45:33;99899.81;;;12.33;66.03
17311;BME280;8773;43.300;0.394;2023-02-22T06:48:01;99899.81;;;12.33;65.07
17311;BME280;8773;43.300;0.394;2023-02-22T06:50:30;99892.09;;;12.30;65.86
17311;BME280;8773;43.300;0.394;2023-02-22T06:53:01;99902.28;;;12.26;66.62
17311;BME280;8773;43.300;0.394;2023-02-22T06:55:31;99899.75;;;12.17;66.44
17311;BME280;8773;43.300;0.394;2023-02-22T06:58:01;99900.25;;;12.20;66.87
17311;BME280;8773;43.300;0.394;2023-02-22T07:00:31;99908.97;;;12.22;66.82
17311;BME280;8773;43.300;0.394;2023-02-22T07:03:00;99909.28;;;12.19;67.06
17311;BME280;8773;43.300;0.394;2023-02-22T07:05:30;99913.31;;;12.23;66.39
17311;BME280;8773;43.300;0.394;2023-02-22T07:08:02;99907.09;;;12.15;67.18
17311;BME280;8773;43.300;0.394;2023-02-22T07:10:32;99910.75;;;12.14;67.08
17311;BME280;8773;43.300;0.394;2023-02-22T07:13:01;99906.78;;;12.18;66.64
17311;BME280;8773;43.300;0.394;2023-02-22T07:15:33;99917.84;;;12.23;66.75
17311;BME280;8773;43.300;0.394;2023-02-22T07:18:02;99918.34;;;12.26;66.61
17311;BME280;8773;43.300;0.394;2023-02-22T07:20:31;99921.53;;;12.30;66.26
17311;BME280;8773;43.300;0.394;2023-02-22T07:23:00;99915.78;;;12.17;66.69
17311;BME280;8773;43.300;0.394;2023-02-22T07:25:28;99920.50;;;12.23;66.68
17311;BME280;8773;43.300;0.394;2023-02-22T07:27:56;99933.94;;;12.31;67.26
17311;BME280;8773;43.300;0.394;2023-02-22T07:30:26;99930.25;;;12.32;66.88
17311;BME280;8773;43.300;0.394;2023-02-22T07:32:59;99922.06;;;12.33;67.37
17311;BME280;8773;43.300;0.394;2023-02-22T07:35:29;99929.09;;;12.34;66.77
17311;BME280;8773;43.300;0.394;2023-02-22T07:37:57;99924.72;;;12.41;67.21
17311;BME280;8773;43.300;0.394;2023-02-22T07:40:26;99927.09;;;12.45;67.42
17311;BME280;8773;43.300;0.394;2023-02-22T07:42:56;99932.78;;;12.50;67.08
17311;BME280;8773;43.300;0.394;2023-02-22T07:45:27;99931.78;;;12.51;67.25
17311;BME280;8773;43.300;0.394;2023-02-22T07:47:57;99930.50;;;12.55;66.92
17311;BME280;8773;43.300;0.394;2023-02-22T07:50:28;99936.69;;;12.55;66.75
17311;BME280;8773;43.300;0.394;2023-02-22T07:52:59;99931.13;;;12.49;67.48
17311;BME280;8773;43.300;0.394;2023-02-22T07:55:29;99940.69;;;12.51;66.98
17311;BME280;8773;43.300;0.394;2023-02-22T07:57:59;99930.81;;;12.52;67.42
17311;BME280;8773;43.300;0.394;2023-02-22T08:00:28;99943.22;;;12.53;67.45
17311;BME280;8773;43.300;0.394;2023-02-22T08:03:00;99942.16;;;12.37;68.09
17311;BME280;8773;43.300;0.394;2023-02-22T08:05:29;99941.31;;;12.45;67.67
17311;BME280;8773;43.300;0.394;2023-02-22T08:07:58;99948.34;;;12.46;68.02
17311;BME280;8773;43.300;0.394;2023-02-22T08:10:26;99949.69;;;12.50;68.25
17311;BME280;8773;43.300;0.394;2023-02-22T08:12:54;99951.53;;;12.50;68.44
17311;BME280;8773;43.300;0.394;2023-02-22T08:15:25;99950.09;;;12.55;68.06
17311;BME280;8773;43.300;0.394;2023-02-22T08:17:54;99948.94;;;12.66;68.20
17311;BME280;8773;43.300;0.394;2023-02-22T08:20:24;99962.03;;;12.77;67.02
17311;BME280;8773;43.300;0.394;2023-02-22T08:22:53;99951.00;;;12.80;67.08
17311;BME280;8773;43.300;0.394;2023-02-22T08:25:24;99955.00;;;12.92;67.23
17311;BME280;8773;43.300;0.394;2023-02-22T08:27:57;99956.88;;;13.00;67.21
17311;BME280;8773;43.300;0.394;2023-02-22T08:30:28;99963.56;;;13.04;67.06
17311;BME280;8773;43.300;0.394;2023-02-22T08:32:57;99959.19;;;12.95;67.41
17311;BME280;8773;43.300;0.394;2023-02-22T08:35:28;99955.88;;;13.09;66.70
17311;BME280;8773;43.300;0.394;2023-02-22T08:37:59;99961.91;;;13.03;66.94
17311;BME280;8773;43.300;0.394;2023-02-22T08:40:29;99958.38;;;13.02;66.78
17311;BME280;8773;43.300;0.394;2023-02-22T08:42:58;99963.75;;;13.11;66.56
17311;BME280;8773;43.300;0.394;2023-02-22T08:45:27;99962.56;;;13.13;66.59
17311;BME280;8773;43.300;0.394;2023-02-22T08:47:57;99963.09;;;13.17;66.88
17311;BME280;8773;43.300;0.394;2023-02-22T08:50:28;99954.38;;;13.23;66.56
17311;BME280;8773;43.300;0.394;2023-02-22T08:52:58;99962.25;;;13.24;66.52
17311;BME280;8773;43.300;0.394;2023-02-22T08:55:28;99965.06;;;13.31;66.28
17311;BME280;8773;43.300;0.394;2023-02-22T08:57:58;99969.59;;;13.30;66.41
17311;BME280;8773;43.300;0.394;2023-02-22T09:00:27;99960.88;;;13.36;66.02
17311;BME280;8773;43.300;0.394;2023-02-22T09:02:59;99969.44;;;13.40;66.17
17311;BME280;8773;43.300;0.394;2023-02-22T09:05:29;99963.06;;;13.41;66.25
17311;BME280;8773;43.300;0.394;2023-02-22T09:07:58;99957.03;;;13.47;65.89
17311;BME280;8773;43.300;0.394;2023-02-22T09:10:28;99963.91;;;13.50;65.83
17311;BME280;8773;43.300;0.394;2023-02-22T09:12:57;99963.41;;;13.54;65.74
17311;BME280;8773;43.300;0.394;2023-02-22T09:15:27;99956.84;;;13.57;65.50
17311;BME280;8773;43.300;0.394;2023-02-22T09:17:56;99966.91;;;13.63;65.50
17311;BME280;8773;43.300;0.394;2023-02-22T09:20:24;99956.53;;;13.68;65.44
17311;BME280;8773;43.300;0.394;2023-02-22T09:22:54;99957.34;;;13.60;65.60
17311;BME280;8773;43.300;0.394;2023-02-22T09:25:22;99961.88;;;13.52;65.96
17311;BME280;8773;43.300;0.394;2023-02-22T09:27:51;99962.06;;;13.42;66.49
17311;BME280;8773;43.300;0.394;2023-02-22T09:30:23;99966.41;;;13.35;67.08
17311;BME280;8773;43.300;0.394;2023-02-22T09:32:54;99962.72;;;13.44;66.89
17311;BME280;8773;43.300;0.394;2023-02-22T09:35:23;99969.94;;;13.60;66.70
17311;BME280;8773;43.300;0.394;2023-02-22T09:37:55;99971.81;;;13.67;66.11
17311;BME280;8773;43.300;0.394;2023-02-22T09:40:25;99959.69;;;13.63;66.63
17311;BME280;8773;43.300;0.394;2023-02-22T09:43:04;99966.06;;;13.70;66.66
17311;BME280;8773;43.300;0.394;2023-02-22T09:45:38;99960.84;;;13.77;66.92
17311;BME280;8773;43.300;0.394;2023-02-22T09:48:15;99960.69;;;13.87;66.74
17311;BME280;8773;43.300;0.394;2023-02-22T09:50:50;99966.38;;;13.92;66.75
17311;BME280;8773;43.300;0.394;2023-02-22T09:53:26;99963.84;;;13.98;66.57
17311;BME280;8773;43.300;0.394;2023-02-22T09:55:59;99963.00;;;13.98;66.21
17311;BME280;8773;43.300;0.394;2023-02-22T09:58:32;99970.38;;;14.04;66.03
17311;BME280;8773;43.300;0.394;2023-02-22T10:01:09;99964.66;;;14.07;65.94
17311;BME280;8773;43.300;0.394;2023-02-22T10:03:48;99966.69;;;14.05;66.15
17311;BME280;8773;43.300;0.394;2023-02-22T10:06:20;99964.16;;;14.12;66.05
17311;BME280;8773;43.300;0.394;2023-02-22T10:08:52;99966.28;;;14.16;66.07
17311;BME280;8773;43.300;0.394;2023-02-22T10:14:41;99968.94;;;14.24;65.56
17311;BME280;8773;43.300;0.394;2023-02-22T10:17:18;99967.06;;;14.33;65.38
17311;BME280;8773;43.300;0.394;2023-02-22T10:19:58;99973.59;;;14.38;66.07
17311;BME280;8773;43.300;0.394;2023-02-22T10:22:38;99974.41;;;14.47;66.04
17311;BME280;8773;43.300;0.394;2023-02-22T10:25:12;99970.84;;;14.55;65.63
17311;BME280;8773;43.300;0.394;2023-02-22T10:27:47;99963.78;;;14.54;65.42
17311;BME280;8773;43.300;0.394;2023-02-22T10:30:20;99969.84;;;14.48;64.97
17311;BME280;8773;43.300;0.394;2023-02-22T10:32:54;99967.59;;;14.59;65.35
17311;BME280;8773;43.300;0.394;2023-02-22T10:35:27;99965.03;;;14.74;64.52
17311;BME280;8773;43.300;0.394;2023-02-22T10:38:00;99969.38;;;14.75;64.11
17311;BME280;8773;43.300;0.394;2023-02-22T10:40:32;99968.81;;;14.88;63.80
17311;BME280;8773;43.300;0.394;2023-02-22T10:43:02;99964.88;;;14.98;63.58
17311;BME280;8773;43.300;0.394;2023-02-22T10:45:32;99958.53;;;14.91;63.71
17311;BME280;8773;43.300;0.394;2023-02-22T10:48:07;99967.31;;;14.85;63.92
17311;BME280;8773;43.300;0.394;2023-02-22T10:50:38;99951.50;;;14.90;63.92
17311;BME280;8773;43.300;0.394;2023-02-22T10:53:07;99956.06;;;15.04;63.61
17311;BME280;8773;43.300;0.394;2023-02-22T10:56:13;99952.97;;;15.16;63.09
17311;BME280;8773;43.300;0.394;2023-02-22T10:58:48;99951.00;;;15.10;63.33
17311;BME280;8773;43.300;0.394;2023-02-22T11:01:35;99959.38;;;14.92;63.29
17311;BME280;8773;43.300;0.394;2023-02-22T11:04:11;99950.97;;;14.95;63.86
17311;BME280;8773;43.300;0.394;2023-02-22T11:06:41;99952.38;;;15.05;63.83
17311;BME280;8773;43.300;0.394;2023-02-22T11:09:12;99958.28;;;15.01;64.47
17311;BME280;8773;43.300;0.394;2023-02-22T11:11:44;99946.75;;;15.15;64.05
17311;BME280;8773;43.300;0.394;2023-02-22T11:14:25;99939.22;;;15.11;64.82
17311;BME280;8773;43.300;0.394;2023-02-22T11:16:54;99943.47;;;15.28;64.03
17311;BME280;8773;43.300;0.394;2023-02-22T11:19:25;99941.84;;;15.19;64.31
17311;BME280;8773;43.300;0.394;2023-02-22T11:21:56;99944.25;;;15.14;64.18
17311;BME280;8773;43.300;0.394;2023-02-22T11:24:25;99940.19;;;15.18;64.10
17311;BME280;8773;43.300;0.394;2023-02-22T11:27:25;99934.91;;;15.01;64.31
17311;BME280;8773;43.300;0.394;2023-02-22T11:30:15;99944.50;;;14.81;64.08
17311;BME280;8773;43.300;0.394;2023-02-22T11:32:48;99936.59;;;15.02;64.19
17311;BME280;8773;43.300;0.394;2023-02-22T11:35:30;99936.72;;;15.09;64.50
17311;BME280;8773;43.300;0.394;2023-02-22T11:38:15;99935.31;;;15.36;64.08
17311;BME280;8773;43.300;0.394;2023-02-22T11:40:43;99932.16;;;15.32;63.54
17311;BME280;8773;43.300;0.394;2023-02-22T11:43:16;99924.84;;;15.41;63.44
17311;BME280;8773;43.300;0.394;2023-02-22T11:45:57;99925.34;;;15.59;62.31
17311;BME280;8773;43.300;0.394;2023-02-22T11:48:31;99929.13;;;15.50;62.46
17311;BME280;8773;43.300;0.394;2023-02-22T11:51:11;99919.22;;;15.65;62.50
17311;BME280;8773;43.300;0.394;2023-02-22T11:54:08;99917.88;;;15.47;61.89
17311;BME280;8773;43.300;0.394;2023-02-22T11:56:41;99912.31;;;15.48;61.74
17311;BME280;8773;43.300;0.394;2023-02-22T11:59:22;99912.19;;;15.27;61.94
17311;BME280;8773;43.300;0.394;2023-02-22T12:01:55;99917.59;;;15.27;62.98
17311;BME280;8773;43.300;0.394;2023-02-22T12:04:50;99914.06;;;15.03;63.02
17311;BME280;8773;43.300;0.394;2023-02-22T12:07:31;99910.22;;;14.83;64.17
17311;BME280;8773;43.300;0.394;2023-02-22T12:10:18;99905.50;;;14.85;64.20
17311;BME280;8773;43.300;0.394;2023-02-22T12:13:00;99910.91;;;14.77;63.99
17311;BME280;8773;43.300;0.394;2023-02-22T12:15:39;99907.41;;;14.68;64.86
17311;BME280;8773;43.300;0.394;2023-02-22T12:18:16;99907.06;;;14.71;65.21
17311;BME280;8773;43.300;0.394;2023-02-22T12:20:52;99901.47;;;14.81;64.19
17311;BME280;8773;43.300;0.394;2023-02-22T12:23:25;99905.13;;;14.88;64.56
17311;BME280;8773;43.300;0.394;2023-02-22T12:26:01;99894.19;;;14.90;64.46
17311;BME280;8773;43.300;0.394;2023-02-22T12:28:34;99901.69;;;14.71;64.40
17311;BME280;8773;43.300;0.394;2023-02-22T12:31:14;99897.06;;;14.88;64.23
17311;BME280;8773;43.300;0.394;2023-02-22T12:33:51;99888.31;;;15.09;63.43
17311;BME280;8773;43.300;0.394;2023-02-22T12:36:29;99889.13;;;15.47;63.08
17311;BME280;8773;43.300;0.394;2023-02-22T12:39:02;99887.09;;;15.64;61.76
17311;BME280;8773;43.300;0.394;2023-02-22T12:41:41;99880.34;;;15.68;61.58
17311;BME280;8773;43.300;0.394;2023-02-22T12:44:16;99883.50;;;15.71;61.20
17311;BME280;8773;43.300;0.394;2023-02-22T12:46:48;99884.84;;;15.00;62.73
17311;BME280;8773;43.300;0.394;2023-02-22T12:49:27;99881.72;;;14.74;62.95
17311;BME280;8773;43.300;0.394;2023-02-22T12:52:02;99880.75;;;14.59;63.84
17311;BME280;8773;43.300;0.394;2023-02-22T12:54:52;99874.31;;;14.45;64.54
17311;BME280;8773;43.300;0.394;2023-02-22T12:57:36;99879.91;;;14.35;64.79
17311;BME280;8773;43.300;0.394;2023-02-22T13:00:14;99881.91;;;14.11;66.20
17311;BME280;8773;43.300;0.394;2023-02-22T13:02:55;99880.28;;;14.01;66.45
17311;BME280;8773;43.300;0.394;2023-02-22T13:05:24;99881.81;;;13.96;67.01
17311;BME280;8773;43.300;0.394;2023-02-22T13:08:08;99879.13;;;13.96;67.44
17311;BME280;8773;43.300;0.394;2023-02-22T13:11:04;99878.56;;;14.09;67.40
17311;BME280;8773;43.300;0.394;2023-02-22T13:13:43;99873.97;;;14.17;67.07
17311;BME280;8773;43.300;0.394;2023-02-22T13:16:31;99874.72;;;14.34;67.02
17311;BME280;8773;43.300;0.394;2023-02-22T13:19:13;99873.00;;;14.41;66.72
17311;BME280;8773;43.300;0.394;2023-02-22T13:21:52;99874.19;;;14.38;66.97
17311;BME280;8773;43.300;0.394;2023-02-22T13:24:25;99870.31;;;14.41;66.99
17311;BME280;8773;43.300;0.394;2023-02-22T13:26:59;99859.44;;;14.34;66.52
17311;BME280;8773;43.300;0.394;2023-02-22T13:29:32;99857.72;;;14.42;66.13
17311;BME280;8773;43.300;0.394;2023-02-22T13:32:16;99853.91;;;14.36;65.48
17311;BME280;8773;43.300;0.394;2023-02-22T13:35:01;99856.41;;;14.37;65.37
17311;BME280;8773;43.300;0.394;2023-02-22T13:38:06;99860.28;;;14.35;65.30
17311;BME280;8773;43.300;0.394;2023-02-22T13:41:01;99854.69;;;14.45;65.38
17311;BME280;8773;43.300;0.394;2023-02-22T13:44:01;99855.91;;;14.57;64.92
17311;BME280;8773;43.300;0.394;2023-02-22T13:49:38;99848.78;;;14.49;64.48
17311;BME280;8773;43.300;0.394;2023-02-22T13:52:15;99846.84;;;14.58;64.48